createdAt,value
2018-03-18T00:02:22.075Z,5.40
2018-03-18T00:04:53.655Z,5.40
2018-03-18T00:07:35.027Z,5.30
2018-03-18T00:10:07.407Z,5.30
2018-03-18T00:12:40.386Z,5.20
2018-03-18T00:15:20.366Z,5.30
2018-03-18T00:17:51.675Z,5.30
2018-03-18T00:20:23.745Z,5.20
2018-03-18T00:22:55.635Z,5.20
2018-03-18T00:25:27.765Z,5.20
2018-03-18T00:28:03.927Z,5.30
2018-03-18T00:30:46.015Z,5.20
2018-03-18T00:33:17.075Z,5.20
2018-03-18T00:38:28.864Z,5.20
2018-03-18T00:41:01.035Z,5.20
2018-03-18T00:43:37.717Z,5.20
2018-03-18T00:46:15.085Z,5.20
2018-03-18T00:48:48.196Z,5.10
2018-03-18T00:51:36.085Z,5.20
2018-03-18T00:54:12.764Z,5.20
2018-03-18T00:56:47.330Z,5.30
2018-03-18T00:59:20.315Z,5.40
2018-03-18T01:01:52.785Z,5.40
2018-03-18T01:04:26.134Z,5.40
2018-03-18T01:07:06.746Z,5.50
2018-03-18T01:12:12.205Z,5.50
2018-03-18T01:14:43.104Z,5.50
2018-03-18T01:17:15.614Z,5.50
2018-03-18T01:19:48.424Z,5.50
2018-03-18T01:22:20.866Z,5.60
2018-03-18T01:24:54.295Z,5.70
2018-03-18T01:30:03.622Z,5.80
2018-03-18T01:32:40.145Z,5.80
2018-03-18T01:35:15.085Z,5.60
2018-03-18T01:37:48.716Z,5.60
2018-03-18T01:40:22.195Z,5.40
2018-03-18T01:45:29.516Z,5.50
2018-03-18T01:48:03.096Z,5.50
2018-03-18T01:50:37.106Z,5.50
2018-03-18T01:53:23.636Z,5.30
2018-03-18T01:55:55.696Z,5.40
2018-03-18T01:58:34.215Z,5.50
2018-03-18T02:01:07.915Z,5.60
2018-03-18T02:06:12.485Z,5.60
2018-03-18T02:08:47.145Z,5.80
2018-03-18T02:11:18.215Z,5.70
2018-03-18T02:13:52.636Z,5.60
2018-03-18T02:16:33.095Z,5.60
2018-03-18T02:19:04.125Z,5.50
2018-03-18T02:21:45.625Z,5.40
2018-03-18T02:24:17.785Z,5.50
2018-03-18T02:29:23.126Z,5.50
2018-03-18T02:31:55.046Z,5.50
2018-03-18T02:34:28.156Z,5.60
2018-03-18T02:37:02.096Z,5.70
2018-03-18T02:39:33.076Z,5.70
2018-03-18T02:42:06.846Z,5.80
2018-03-18T02:44:45.145Z,5.80
2018-03-18T02:47:17.626Z,5.70
2018-03-18T02:49:51.066Z,5.60
2018-03-18T02:52:22.689Z,5.60
2018-03-18T02:54:57.715Z,5.50
2018-03-18T02:57:33.584Z,5.50
2018-03-18T03:02:40.876Z,5.30
2018-03-18T03:05:16.936Z,5.40
2018-03-18T03:07:50.736Z,5.30
2018-03-18T03:10:23.105Z,5.40
2018-03-18T03:12:54.666Z,5.30
2018-03-18T03:15:39.725Z,5.30
2018-03-18T03:18:13.636Z,5.20
2018-03-18T03:20:46.656Z,5.20
2018-03-18T03:23:18.686Z,5.30
2018-03-18T03:25:51.057Z,5.30
2018-03-18T03:28:29.775Z,5.30
2018-03-18T03:31:05.216Z,5.30
2018-03-18T03:33:36.565Z,5.20
2018-03-18T03:36:09.136Z,5.20
2018-03-18T03:38:52.807Z,5.20
2018-03-18T03:41:27.606Z,5.30
2018-03-18T03:44:01.306Z,5.40
2018-03-18T03:46:39.105Z,5.40
2018-03-18T03:49:12.607Z,5.30
2018-03-18T03:51:45.075Z,5.50
2018-03-18T03:54:18.686Z,5.40
2018-03-18T03:56:54.997Z,5.50
2018-03-18T03:59:25.916Z,5.50
2018-03-18T04:01:57.035Z,5.50
2018-03-18T04:04:30.216Z,5.30
2018-03-18T04:07:03.205Z,5.30
2018-03-18T04:09:35.258Z,5.30
2018-03-18T04:12:06.816Z,5.30
2018-03-18T04:14:40.505Z,5.30
2018-03-18T04:17:16.476Z,5.30
2018-03-18T04:19:47.015Z,5.30
2018-03-18T04:22:20.085Z,5.30
2018-03-18T04:24:53.076Z,5.30
2018-03-18T04:27:29.236Z,5.30
2018-03-18T04:30:03.117Z,5.30
2018-03-18T04:32:34.077Z,5.40
2018-03-18T04:35:07.576Z,5.30
2018-03-18T04:37:41.386Z,5.30
2018-03-18T04:40:15.023Z,5.20
2018-03-18T04:42:45.717Z,5.30
2018-03-18T04:45:21.877Z,5.20
2018-03-18T04:47:56.597Z,5.20
2018-03-18T04:50:31.227Z,5.20
2018-03-18T04:53:09.636Z,5.20
2018-03-18T04:55:43.956Z,5.20
2018-03-18T04:58:19.626Z,5.20
2018-03-18T05:00:51.395Z,5.20
2018-03-18T05:03:26.506Z,5.00
2018-03-18T05:05:57.856Z,5.00
2018-03-18T05:08:36.566Z,5.00
2018-03-18T05:11:08.636Z,4.90
2018-03-18T05:13:43.356Z,5.00
2018-03-18T05:16:14.095Z,5.00
2018-03-18T05:18:49.225Z,5.00
2018-03-18T05:21:20.576Z,5.10
2018-03-18T05:23:54.787Z,5.10
2018-03-18T05:26:36.125Z,5.10
2018-03-18T05:29:08.755Z,5.10
2018-03-18T05:31:42.126Z,5.10
2018-03-18T05:34:18.166Z,5.10
2018-03-18T05:36:50.365Z,5.20
2018-03-18T05:39:22.425Z,5.20
2018-03-18T05:41:53.156Z,5.10
2018-03-18T05:44:27.887Z,5.20
2018-03-18T05:47:00.676Z,5.10
2018-03-18T05:49:34.136Z,5.30
2018-03-18T05:52:05.715Z,5.20
2018-03-18T05:54:38.196Z,5.20
2018-03-18T05:57:12.615Z,5.30
2018-03-18T05:59:43.657Z,5.40
2018-03-18T06:02:15.925Z,5.40
2018-03-18T06:04:48.196Z,5.40
2018-03-18T06:07:22.615Z,5.40
2018-03-18T06:09:56.206Z,5.30
2018-03-18T06:12:27.328Z,5.20
2018-03-18T06:14:59.426Z,5.20
2018-03-18T06:17:32.515Z,5.20
2018-03-18T06:20:05.296Z,5.20
2018-03-18T06:22:37.565Z,5.30
2018-03-18T06:25:09.216Z,5.30
2018-03-18T06:27:45.166Z,5.40
2018-03-18T06:30:18.606Z,5.30
2018-03-18T06:32:50.360Z,5.20
2018-03-18T06:35:26.136Z,6.20
2018-03-18T06:37:58.576Z,5.30
2018-03-18T06:40:31.677Z,5.40
2018-03-18T06:43:03.695Z,5.30
2018-03-18T06:45:37.096Z,5.30
2018-03-18T06:48:09.355Z,5.30
2018-03-18T06:50:41.765Z,5.30
2018-03-18T06:53:12.256Z,5.20
2018-03-18T06:55:52.135Z,5.30
2018-03-18T06:58:27.546Z,5.40
2018-03-18T07:01:00.564Z,5.40
2018-03-18T07:03:33.115Z,5.40
2018-03-18T07:06:08.145Z,5.40
2018-03-18T07:08:40.045Z,5.50
2018-03-18T07:11:12.686Z,5.50
2018-03-18T07:13:46.164Z,5.30
2018-03-18T07:16:17.745Z,5.30
2018-03-18T07:18:50.527Z,5.30
2018-03-18T07:21:22.386Z,5.30
2018-03-18T07:23:55.456Z,5.30
2018-03-18T07:26:24.832Z,5.30
2018-03-18T07:28:58.144Z,5.10
2018-03-18T07:31:33.166Z,5.00
2018-03-18T07:34:04.886Z,5.00
2018-03-18T07:36:38.956Z,6.10
2018-03-18T07:39:10.429Z,5.10
2018-03-18T07:41:43.015Z,5.10
2018-03-18T07:44:15.974Z,5.10
2018-03-18T07:46:50.086Z,5.10
2018-03-18T07:49:23.690Z,5.10
2018-03-18T07:51:54.514Z,5.20
2018-03-18T07:54:30.069Z,5.30
2018-03-18T07:57:04.996Z,5.40
2018-03-18T07:59:36.855Z,5.50
2018-03-18T08:02:16.157Z,5.50
2018-03-18T08:04:57.175Z,5.50
2018-03-18T08:07:30.198Z,5.50
2018-03-18T08:10:01.808Z,5.40
2018-03-18T08:12:35.445Z,5.40
2018-03-18T08:15:07.916Z,5.40
2018-03-18T08:17:39.980Z,5.50
2018-03-18T08:20:11.595Z,5.40
2018-03-18T08:22:44.306Z,5.50
2018-03-18T08:25:18.595Z,5.50
2018-03-18T08:27:49.425Z,5.50
2018-03-18T08:30:21.495Z,5.60
2018-03-18T08:32:52.536Z,5.60
2018-03-18T08:35:24.594Z,5.70
2018-03-18T08:38:02.606Z,5.70
2018-03-18T08:40:34.864Z,5.60
2018-03-18T08:43:05.805Z,5.60
2018-03-18T08:45:44.155Z,5.70
2018-03-18T08:48:17.106Z,5.70
2018-03-18T08:50:52.206Z,5.60
2018-03-18T08:53:23.786Z,5.70
2018-03-18T08:55:55.756Z,5.80
2018-03-18T08:58:31.154Z,5.90
2018-03-18T09:01:03.197Z,5.90
2018-03-18T09:03:34.916Z,5.90
2018-03-18T09:06:06.266Z,5.90
2018-03-18T09:08:40.586Z,5.90
2018-03-18T09:11:12.025Z,5.80
2018-03-18T09:13:43.996Z,5.80
2018-03-18T09:16:15.347Z,5.90
2018-03-18T09:18:46.497Z,5.90
2018-03-18T09:21:17.255Z,5.90
2018-03-18T09:23:49.316Z,5.90
2018-03-18T09:26:21.866Z,6.00
2018-03-18T09:28:53.965Z,6.00
2018-03-18T09:31:25.475Z,6.10
2018-03-18T09:33:56.706Z,6.10
2018-03-18T09:36:27.996Z,6.10
2018-03-18T09:38:59.956Z,6.20
2018-03-18T09:41:32.165Z,6.20
2018-03-18T09:44:10.096Z,6.10
2018-03-18T09:46:41.034Z,6.10
2018-03-18T09:49:13.916Z,6.00
2018-03-18T09:51:48.266Z,6.10
2018-03-18T09:54:19.487Z,6.10
2018-03-18T09:56:51.026Z,6.20
2018-03-18T09:59:22.196Z,6.30
2018-03-18T10:01:58.126Z,7.10
2018-03-18T10:04:31.817Z,6.30
2018-03-18T10:07:05.637Z,6.30
2018-03-18T10:09:37.607Z,6.30
2018-03-18T10:12:13.226Z,6.30
2018-03-18T10:14:48.419Z,6.30
2018-03-18T10:17:23.565Z,6.30
2018-03-18T10:19:55.175Z,6.30
2018-03-18T10:22:30.756Z,6.40
2018-03-18T10:25:04.765Z,6.40
2018-03-18T10:27:39.769Z,6.40
2018-03-18T10:30:12.139Z,6.50
2018-03-18T10:32:43.333Z,6.50
2018-03-18T10:35:16.777Z,6.50
2018-03-18T10:37:48.166Z,6.60
2018-03-18T10:40:20.176Z,6.70
2018-03-18T10:42:52.277Z,6.70
2018-03-18T10:45:23.805Z,6.60
2018-03-18T10:47:54.740Z,6.50
2018-03-18T10:50:28.366Z,6.50
2018-03-18T10:53:00.408Z,6.40
2018-03-18T10:55:32.465Z,6.30
2018-03-18T10:58:04.185Z,6.40
2018-03-18T11:00:42.155Z,6.50
2018-03-18T11:03:16.216Z,6.60
2018-03-18T11:05:49.017Z,6.70
2018-03-18T11:08:23.735Z,6.70
2018-03-18T11:10:57.155Z,6.70
2018-03-18T11:13:31.226Z,6.80
2018-03-18T11:16:05.923Z,6.70
2018-03-18T11:18:37.851Z,6.70
2018-03-18T11:21:08.376Z,6.70
2018-03-18T11:23:41.286Z,6.70
2018-03-18T11:26:13.198Z,6.70
2018-03-18T11:28:44.908Z,6.60
2018-03-18T11:31:17.215Z,6.60
2018-03-18T11:33:49.336Z,6.60
2018-03-18T11:36:21.318Z,6.50
2018-03-18T11:38:53.205Z,6.50
2018-03-18T11:41:28.775Z,6.40
2018-03-18T11:44:01.757Z,6.50
2018-03-18T11:46:35.876Z,6.50
2018-03-18T11:49:07.836Z,6.50
2018-03-18T11:51:40.216Z,6.50
2018-03-18T11:54:13.806Z,6.60
2018-03-18T11:56:44.656Z,6.70
2018-03-18T11:59:19.215Z,6.70
2018-03-18T12:01:51.585Z,6.70
2018-03-18T12:04:26.155Z,6.70
2018-03-18T12:06:59.557Z,6.60
2018-03-18T12:09:32.846Z,6.60
2018-03-18T12:12:04.209Z,6.70
2018-03-18T12:14:39.207Z,6.60
2018-03-18T12:17:13.145Z,6.70
2018-03-18T12:19:45.108Z,6.60
2018-03-18T12:22:17.325Z,6.70
2018-03-18T12:24:49.025Z,6.80
2018-03-18T12:27:20.789Z,6.80
2018-03-18T12:29:56.125Z,6.80
2018-03-18T12:32:27.615Z,6.80
2018-03-18T12:34:59.326Z,6.70
2018-03-18T12:37:30.364Z,6.80
2018-03-18T12:42:53.226Z,6.80
2018-03-18T12:45:25.804Z,6.80
2018-03-18T12:53:05.485Z,7.00
2018-03-18T12:55:44.715Z,6.90
2018-03-18T12:58:19.956Z,6.90
2018-03-18T13:00:57.349Z,6.80
2018-03-18T13:03:29.915Z,6.80
2018-03-18T13:06:05.875Z,6.70
2018-03-18T13:08:39.776Z,6.90
2018-03-18T13:11:14.825Z,6.90
2018-03-18T13:13:47.105Z,6.90
2018-03-18T13:16:22.227Z,6.90
2018-03-18T13:18:55.554Z,7.00
2018-03-18T13:24:02.825Z,7.00
2018-03-18T13:26:37.134Z,7.00
2018-03-18T13:29:12.884Z,6.90
2018-03-18T13:31:44.544Z,6.90
2018-03-18T13:34:18.146Z,6.90
2018-03-18T13:36:49.778Z,6.90
2018-03-18T13:39:21.765Z,7.00
2018-03-18T13:41:53.005Z,7.00
2018-03-18T13:44:25.444Z,7.10
2018-03-18T13:46:56.926Z,7.20
2018-03-18T13:49:32.679Z,7.30
2018-03-18T13:52:07.100Z,7.30
2018-03-18T13:54:42.236Z,7.20
2018-03-18T13:57:19.446Z,7.20
2018-03-18T13:59:50.457Z,7.20
2018-03-18T14:02:21.545Z,7.30
2018-03-18T14:04:53.215Z,7.20
2018-03-18T14:07:28.180Z,7.00
2018-03-18T14:09:59.776Z,6.80
2018-03-18T14:12:34.189Z,6.70
2018-03-18T14:15:10.395Z,6.60
2018-03-18T14:22:54.096Z,6.60
2018-03-18T14:25:37.256Z,6.60
2018-03-18T14:28:08.665Z,6.70
2018-03-18T14:30:41.445Z,6.70
2018-03-18T14:33:12.256Z,6.70
2018-03-18T14:35:44.546Z,6.70
2018-03-18T14:38:16.714Z,6.60
2018-03-18T14:40:48.815Z,6.40
2018-03-18T14:43:21.187Z,6.50
2018-03-18T14:45:53.316Z,6.40
2018-03-18T14:48:26.195Z,6.40
2018-03-18T14:50:59.905Z,6.50
2018-03-18T14:53:31.459Z,6.50
2018-03-18T14:56:03.527Z,6.50
2018-03-18T14:58:38.456Z,6.40
2018-03-18T15:01:10.035Z,6.40
2018-03-18T15:03:49.206Z,6.30
2018-03-18T15:06:23.239Z,6.20
2018-03-18T15:08:58.376Z,6.10
2018-03-18T15:11:31.586Z,6.30
2018-03-18T15:14:02.924Z,6.20
2018-03-18T15:16:38.376Z,6.30
2018-03-18T15:19:10.626Z,6.20
2018-03-18T15:21:42.087Z,6.10
2018-03-18T15:24:17.526Z,6.30
2018-03-18T15:26:47.855Z,6.30
2018-03-18T15:29:23.836Z,6.30
2018-03-18T15:32:00.076Z,6.10
2018-03-18T15:34:31.925Z,6.10
2018-03-18T15:37:04.405Z,6.30
2018-03-18T15:39:36.875Z,6.30
2018-03-18T15:42:09.666Z,6.20
2018-03-18T15:44:45.616Z,6.10
2018-03-18T15:47:22.075Z,6.10
2018-03-18T15:49:54.225Z,6.10
2018-03-18T15:52:28.286Z,6.10
2018-03-18T15:55:04.205Z,5.90
2018-03-18T15:57:35.226Z,5.90
2018-03-18T16:00:07.945Z,5.90
2018-03-18T16:02:51.246Z,5.80
2018-03-18T16:05:25.605Z,5.80
2018-03-18T16:07:56.405Z,5.70
2018-03-18T16:10:29.815Z,5.70
2018-03-18T16:13:04.312Z,5.60
2018-03-18T16:15:39.675Z,5.60
2018-03-18T16:18:11.296Z,5.70
2018-03-18T16:20:46.465Z,5.60
2018-03-18T16:23:19.385Z,5.30
2018-03-18T16:25:51.106Z,5.60
2018-03-18T16:28:22.045Z,5.60
2018-03-18T16:33:31.116Z,5.60
2018-03-18T16:36:02.635Z,5.50
2018-03-18T16:38:34.917Z,5.70
2018-03-18T16:41:06.969Z,5.10
2018-03-18T16:43:39.036Z,5.30
2018-03-18T16:48:43.564Z,5.30
2018-03-18T16:51:17.064Z,5.20
2018-03-18T16:53:48.207Z,5.20
2018-03-18T16:56:19.776Z,5.10
2018-03-18T16:58:50.186Z,5.30
2018-03-18T17:01:20.772Z,5.30
2018-03-18T17:03:55.956Z,5.10
2018-03-18T17:06:33.238Z,5.10
2018-03-18T17:09:05.505Z,5.20
2018-03-18T17:11:40.348Z,5.20
2018-03-18T17:14:14.670Z,5.10
2018-03-18T17:16:50.205Z,5.10
2018-03-18T17:19:24.215Z,5.00
2018-03-18T17:21:58.339Z,5.10
2018-03-18T17:24:34.386Z,5.00
2018-03-18T17:27:13.005Z,4.90
2018-03-18T17:29:45.784Z,4.90
2018-03-18T17:32:17.135Z,5.00
2018-03-18T17:34:49.025Z,5.00
2018-03-18T17:37:22.245Z,5.00
2018-03-18T17:39:53.297Z,4.90
2018-03-18T17:42:25.286Z,5.00
2018-03-18T17:45:08.556Z,5.00
2018-03-18T17:47:52.866Z,5.00
2018-03-18T17:50:37.715Z,5.20
2018-03-18T17:53:22.906Z,5.10
2018-03-18T17:56:06.224Z,5.00
2018-03-18T17:58:38.795Z,5.00
2018-03-18T18:01:10.586Z,5.10
2018-03-18T18:03:49.105Z,4.90
2018-03-18T18:06:22.188Z,4.90
2018-03-18T18:08:53.095Z,5.00
2018-03-18T18:11:24.865Z,5.00
2018-03-18T18:13:56.525Z,5.00
2018-03-18T18:16:28.678Z,5.00
2018-03-18T18:18:59.734Z,4.90
2018-03-18T18:21:31.815Z,4.90
2018-03-18T18:24:04.977Z,4.80
2018-03-18T18:26:41.546Z,5.00
2018-03-18T18:29:12.906Z,5.10
2018-03-18T18:31:46.805Z,5.10
2018-03-18T18:34:17.946Z,5.00
2018-03-18T18:36:49.625Z,5.00
2018-03-18T18:39:22.626Z,4.90
2018-03-18T18:41:55.165Z,4.90
2018-03-18T18:44:26.507Z,5.00
2018-03-18T18:46:58.916Z,5.00
2018-03-18T18:49:33.195Z,5.00
2018-03-18T18:52:05.156Z,4.90
2018-03-18T18:54:38.667Z,4.80
2018-03-18T18:57:18.494Z,4.80
2018-03-18T18:59:53.944Z,4.90
2018-03-18T19:02:26.425Z,4.90
2018-03-18T19:04:59.606Z,4.90
2018-03-18T19:07:30.485Z,4.80
2018-03-18T19:10:02.510Z,4.80
2018-03-18T19:12:35.016Z,4.80
2018-03-18T19:15:05.925Z,4.80
2018-03-18T19:17:39.834Z,4.90
2018-03-18T19:20:12.095Z,4.90
2018-03-18T19:22:44.774Z,5.00
2018-03-18T19:25:20.020Z,5.00
2018-03-18T19:27:51.665Z,5.00
2018-03-18T19:30:24.456Z,5.10
2018-03-18T19:32:56.006Z,5.10
2018-03-18T19:35:28.628Z,5.00
2018-03-18T19:38:00.651Z,5.00
2018-03-18T19:40:32.705Z,4.90
2018-03-18T19:43:11.325Z,4.90
2018-03-18T19:45:43.495Z,4.90
2018-03-18T19:48:16.886Z,4.90
2018-03-18T19:50:48.127Z,4.80
2018-03-18T19:53:22.307Z,4.90
2018-03-18T19:55:56.866Z,6.40
2018-03-18T19:58:30.057Z,4.70
2018-03-18T20:01:02.736Z,4.80
2018-03-18T20:03:34.308Z,4.80
2018-03-18T20:06:07.375Z,4.90
2018-03-18T20:08:38.656Z,4.80
2018-03-18T20:11:13.244Z,4.80
2018-03-18T20:13:47.675Z,4.80
2018-03-18T20:16:21.486Z,4.80
2018-03-18T20:18:53.645Z,4.80
2018-03-18T20:21:25.498Z,4.90
2018-03-18T20:23:58.486Z,4.90
2018-03-18T20:26:30.648Z,5.00
2018-03-18T20:29:03.126Z,5.10
2018-03-18T20:31:35.806Z,5.00
2018-03-18T20:34:12.887Z,5.00
2018-03-18T20:36:44.296Z,4.90
2018-03-18T20:39:16.607Z,4.90
2018-03-18T20:44:24.426Z,4.90
2018-03-18T20:46:58.236Z,5.00
2018-03-18T20:49:30.386Z,5.00
2018-03-18T20:52:04.503Z,5.00
2018-03-18T20:54:36.465Z,4.90
2018-03-18T20:57:08.745Z,5.00
2018-03-18T20:59:49.097Z,4.90
2018-03-18T21:02:20.746Z,4.90
2018-03-18T21:04:54.856Z,5.00
2018-03-18T21:07:37.054Z,5.10
2018-03-18T21:12:40.886Z,5.20
2018-03-18T21:15:12.546Z,5.20
2018-03-18T21:17:44.195Z,5.10
2018-03-18T21:25:25.506Z,5.10
2018-03-18T21:28:02.175Z,4.90
2018-03-18T21:30:38.744Z,5.00
2018-03-18T21:33:14.707Z,5.00
2018-03-18T21:35:48.815Z,4.70
2018-03-18T21:38:20.476Z,5.00
2018-03-18T21:40:52.057Z,5.00
2018-03-18T21:43:24.495Z,5.10
2018-03-18T21:45:57.925Z,5.10
2018-03-18T21:48:29.847Z,5.10
2018-03-18T21:56:13.943Z,5.00
2018-03-18T22:01:26.657Z,5.00
2018-03-18T22:03:58.285Z,5.00
2018-03-18T22:06:32.125Z,5.10
2018-03-18T22:11:38.497Z,5.10
2018-03-18T22:14:10.605Z,5.10
2018-03-18T22:16:42.786Z,5.10
2018-03-18T22:19:15.326Z,5.00
2018-03-18T22:21:48.305Z,4.90
2018-03-18T22:24:20.705Z,4.90
2018-03-18T22:26:52.886Z,4.90
2018-03-18T22:29:30.295Z,4.90
2018-03-18T22:32:04.956Z,4.90
2018-03-18T22:34:37.327Z,4.90
2018-03-18T22:37:10.107Z,4.80
2018-03-18T22:39:41.345Z,4.80
2018-03-18T22:42:13.716Z,4.90
2018-03-18T22:44:45.576Z,4.90
2018-03-18T22:47:19.938Z,4.80
2018-03-18T22:49:53.906Z,5.10
2018-03-18T22:52:25.666Z,4.90
2018-03-18T22:57:34.605Z,4.90
2018-03-18T23:00:06.966Z,4.90
2018-03-18T23:02:41.496Z,4.90
2018-03-18T23:05:16.736Z,5.00
2018-03-18T23:10:26.496Z,5.20
2018-03-18T23:13:01.051Z,5.00
2018-03-18T23:18:05.556Z,4.80
2018-03-18T23:23:09.486Z,4.90
2018-03-18T23:28:16.995Z,5.00
2018-03-18T23:30:48.335Z,4.90
2018-03-18T23:35:50.324Z,4.90
2018-03-18T23:38:22.066Z,4.90
2018-03-18T23:40:55.055Z,5.00
2018-03-18T23:53:35.786Z,4.80
2018-03-18T23:58:42.326Z,4.80
